createdAt,value
2018-06-13T00:00:06.223Z,18.40
2018-06-13T00:02:35.088Z,18.50
2018-06-13T00:05:03.877Z,18.50
2018-06-13T00:07:32.976Z,18.60
2018-06-13T00:10:01.874Z,18.40
2018-06-13T00:12:30.876Z,18.30
2018-06-13T00:14:59.800Z,18.20
2018-06-13T00:17:28.546Z,18.30
2018-06-13T00:19:57.544Z,18.20
2018-06-13T00:22:26.412Z,18.40
2018-06-13T00:24:55.114Z,18.10
2018-06-13T00:27:23.812Z,18.10
2018-06-13T00:29:52.577Z,18.30
2018-06-13T00:32:21.393Z,18.30
2018-06-13T00:34:50.258Z,18.20
2018-06-13T00:37:19.237Z,18.20
2018-06-13T00:39:48.141Z,18.10
2018-06-13T00:42:17.081Z,18.30
2018-06-13T00:44:45.929Z,18.20
2018-06-13T00:47:14.826Z,18.00
2018-06-13T00:49:45.458Z,18.10
2018-06-13T00:52:14.266Z,18.10
2018-06-13T00:54:42.938Z,18.30
2018-06-13T00:57:11.818Z,18.30
2018-06-13T00:59:40.826Z,18.30
2018-06-13T01:02:09.832Z,18.20
2018-06-13T01:04:38.795Z,18.10
2018-06-13T01:07:07.789Z,18.20
2018-06-13T01:09:36.680Z,18.00
2018-06-13T01:12:05.806Z,17.90
2018-06-13T01:17:03.242Z,18.10
2018-06-13T01:19:32.245Z,18.10
2018-06-13T01:22:01.135Z,18.20
2018-06-13T01:24:30.438Z,18.20
2018-06-13T01:26:59.567Z,18.10
2018-06-13T01:29:28.328Z,18.10
2018-06-13T01:31:57.312Z,18.20
2018-06-13T01:34:26.281Z,18.10
2018-06-13T01:36:55.004Z,18.20
2018-06-13T01:39:24.069Z,18.10
2018-06-13T01:41:52.824Z,18.00
2018-06-13T01:44:21.951Z,17.90
2018-06-13T01:46:51.012Z,17.80
2018-06-13T01:49:20.197Z,17.60
2018-06-13T01:51:48.985Z,17.60
2018-06-13T01:54:17.880Z,17.70
2018-06-13T01:56:47.149Z,17.80
2018-06-13T01:59:16.143Z,18.00
2018-06-13T02:01:45.158Z,17.80
2018-06-13T02:04:14.217Z,17.70
2018-06-13T02:06:42.949Z,17.60
2018-06-13T02:09:11.706Z,17.70
2018-06-13T02:11:40.700Z,17.60
2018-06-13T02:14:09.593Z,17.60
2018-06-13T02:16:38.479Z,17.60
2018-06-13T02:19:08.272Z,17.50
2018-06-13T02:21:37.033Z,17.50
2018-06-13T02:24:06.051Z,17.50
2018-06-13T02:26:34.808Z,17.40
2018-06-13T02:29:03.722Z,17.50
2018-06-13T02:31:32.716Z,17.40
2018-06-13T02:34:01.639Z,17.50
2018-06-13T02:36:30.526Z,17.50
2018-06-13T02:38:59.389Z,17.40
2018-06-13T02:41:28.247Z,17.40
2018-06-13T02:43:57.179Z,17.40
2018-06-13T02:46:26.009Z,17.50
2018-06-13T02:48:55.209Z,17.60
2018-06-13T02:51:23.961Z,17.70
2018-06-13T02:53:52.877Z,17.80
2018-06-13T02:56:21.671Z,17.70
2018-06-13T02:58:51.887Z,17.60
2018-06-13T03:01:20.922Z,17.40
2018-06-13T03:03:49.792Z,17.30
2018-06-13T03:06:18.689Z,17.50
2018-06-13T03:08:50.414Z,17.40
2018-06-13T03:11:19.319Z,17.50
2018-06-13T03:13:48.303Z,17.30
2018-06-13T03:16:17.298Z,17.40
2018-06-13T03:18:46.135Z,17.60
2018-06-13T03:21:14.914Z,17.60
2018-06-13T03:23:43.836Z,17.50
2018-06-13T03:26:12.604Z,17.40
2018-06-13T03:28:41.404Z,17.50
2018-06-13T03:31:10.178Z,17.70
2018-06-13T03:33:39.020Z,17.60
2018-06-13T03:36:07.900Z,17.60
2018-06-13T03:38:36.645Z,17.60
2018-06-13T03:41:05.435Z,17.70
2018-06-13T03:43:34.247Z,17.70
2018-06-13T03:46:03.005Z,17.70
2018-06-13T03:48:31.767Z,17.60
2018-06-13T03:51:00.706Z,17.30
2018-06-13T03:53:29.544Z,17.30
2018-06-13T03:55:58.282Z,17.30
2018-06-13T04:00:55.945Z,17.20
2018-06-13T04:03:24.722Z,17.20
2018-06-13T04:05:53.492Z,17.20
2018-06-13T04:08:22.242Z,17.50
2018-06-13T04:10:51.112Z,17.40
2018-06-13T04:13:19.881Z,17.50
2018-06-13T04:15:48.648Z,17.30
2018-06-13T04:18:19.548Z,17.20
2018-06-13T04:20:48.190Z,17.20
2018-06-13T04:23:16.950Z,17.40
2018-06-13T04:25:46.926Z,17.50
2018-06-13T04:28:15.998Z,17.40
2018-06-13T04:30:45.360Z,17.30
2018-06-13T04:35:42.778Z,17.20
2018-06-13T04:38:11.578Z,17.40
2018-06-13T04:40:40.656Z,17.10
2018-06-13T04:45:37.842Z,17.00
2018-06-13T04:48:06.705Z,16.70
2018-06-13T04:50:35.507Z,16.80
2018-06-13T04:53:04.226Z,16.90
2018-06-13T04:55:32.871Z,16.90
2018-06-13T04:58:01.809Z,17.10
2018-06-13T05:00:31.715Z,17.20
2018-06-13T05:03:00.389Z,17.10
2018-06-13T05:05:29.141Z,17.10
2018-06-13T05:07:57.866Z,17.10
2018-06-13T05:10:29.013Z,17.00
2018-06-13T05:12:57.928Z,16.80
2018-06-13T05:15:26.847Z,17.00
2018-06-13T05:17:55.565Z,17.00
2018-06-13T05:20:27.187Z,17.10
2018-06-13T05:22:56.175Z,17.10
2018-06-13T05:25:25.070Z,16.90
2018-06-13T05:27:55.225Z,16.80
2018-06-13T05:30:24.084Z,17.10
2018-06-13T05:32:52.761Z,17.00
2018-06-13T05:35:21.527Z,17.00
2018-06-13T05:37:50.480Z,16.80
2018-06-13T05:40:19.208Z,16.70
2018-06-13T05:42:48.208Z,16.80
2018-06-13T05:45:17.289Z,16.70
2018-06-13T05:47:46.298Z,16.70
2018-06-13T05:50:15.137Z,16.70
2018-06-13T05:52:43.953Z,16.50
2018-06-13T05:55:12.821Z,16.50
2018-06-13T05:57:41.755Z,16.40
2018-06-13T06:00:10.567Z,16.50
2018-06-13T06:02:39.358Z,16.50
2018-06-13T06:05:08.287Z,16.50
2018-06-13T06:07:37.092Z,16.70
2018-06-13T06:10:06.184Z,16.60
2018-06-13T06:12:35.170Z,16.50
2018-06-13T06:15:04.028Z,16.80
2018-06-13T06:17:33.145Z,16.60
2018-06-13T06:20:02.042Z,16.80
2018-06-13T06:22:30.815Z,16.80
2018-06-13T06:24:59.560Z,16.90
2018-06-13T06:27:28.486Z,16.80
2018-06-13T06:29:57.313Z,16.60
2018-06-13T06:32:26.208Z,16.80
2018-06-13T06:34:55.177Z,16.80
2018-06-13T06:37:24.451Z,16.60
2018-06-13T06:39:53.438Z,16.50
2018-06-13T06:42:22.417Z,16.50
2018-06-13T06:44:51.426Z,16.40
2018-06-13T06:47:20.195Z,16.50
2018-06-13T06:49:49.152Z,16.50
2018-06-13T06:52:18.442Z,16.80
2018-06-13T06:54:47.303Z,16.90
2018-06-13T06:57:16.319Z,17.00
2018-06-13T06:59:45.409Z,17.20
2018-06-13T07:02:14.313Z,16.90
2018-06-13T07:04:43.145Z,16.90
2018-06-13T07:07:12.260Z,16.90
2018-06-13T07:09:41.565Z,17.00
2018-06-13T07:12:10.908Z,17.20
2018-06-13T07:14:39.874Z,17.20
2018-06-13T07:17:08.832Z,17.20
2018-06-13T07:19:37.726Z,17.30
2018-06-13T07:22:06.616Z,17.40
2018-06-13T07:24:35.404Z,17.60
2018-06-13T07:27:04.260Z,17.50
2018-06-13T07:29:33.049Z,17.60
2018-06-13T07:32:02.105Z,17.50
2018-06-13T07:34:30.785Z,17.60
2018-06-13T07:36:59.514Z,17.80
2018-06-13T07:39:28.388Z,18.10
2018-06-13T07:41:57.233Z,18.10
2018-06-13T07:44:25.914Z,18.30
2018-06-13T07:46:56.089Z,18.40
2018-06-13T07:49:25.314Z,18.30
2018-06-13T07:51:55.121Z,18.10
2018-06-13T07:56:55.451Z,18.10
2018-06-13T07:59:24.549Z,18.10
2018-06-13T08:01:54.544Z,17.90
2018-06-13T08:04:23.925Z,17.70
2018-06-13T08:06:52.847Z,17.80
2018-06-13T08:09:21.616Z,17.80
2018-06-13T08:11:50.384Z,18.00
2018-06-13T08:14:19.112Z,17.90
2018-06-13T08:16:47.906Z,17.90
2018-06-13T08:19:16.580Z,18.10
2018-06-13T08:21:45.333Z,18.40
2018-06-13T08:24:14.102Z,18.20
2018-06-13T08:26:42.913Z,18.40
2018-06-13T08:29:13.503Z,18.60
2018-06-13T08:31:42.228Z,18.40
2018-06-13T08:34:10.915Z,18.00
2018-06-13T08:36:40.243Z,17.90
2018-06-13T08:39:09.254Z,18.00
2018-06-13T08:41:38.863Z,18.10
2018-06-13T08:44:08.351Z,18.10
2018-06-13T08:46:37.789Z,18.10
2018-06-13T08:49:06.631Z,17.90
2018-06-13T08:51:35.937Z,18.00
2018-06-13T08:54:05.225Z,18.30
2018-06-13T08:56:35.050Z,18.40
2018-06-13T08:59:04.601Z,18.30
2018-06-13T09:01:34.063Z,18.30
2018-06-13T09:04:02.897Z,18.30
2018-06-13T09:06:31.657Z,18.20
2018-06-13T09:09:00.980Z,17.90
2018-06-13T09:13:58.096Z,18.00
2018-06-13T09:16:26.949Z,17.80
2018-06-13T09:18:55.761Z,17.70
2018-06-13T09:21:24.992Z,17.80
2018-06-13T09:23:54.056Z,17.90
2018-06-13T09:26:23.141Z,18.10
2018-06-13T09:28:51.841Z,18.10
2018-06-13T09:31:20.820Z,18.10
2018-06-13T09:33:49.543Z,18.00
2018-06-13T09:36:18.212Z,18.10
2018-06-13T09:38:46.994Z,18.00
2018-06-13T09:41:16.135Z,18.00
2018-06-13T09:43:44.970Z,18.00
2018-06-13T09:46:13.918Z,17.90
2018-06-13T09:48:42.666Z,17.80
2018-06-13T09:51:11.371Z,17.90
2018-06-13T09:53:40.247Z,17.80
2018-06-13T09:56:09.020Z,17.70
2018-06-13T09:58:42.951Z,17.60
2018-06-13T10:01:17.239Z,17.70
2018-06-13T10:03:46.180Z,17.90
2018-06-13T10:06:14.892Z,17.80
2018-06-13T10:08:43.567Z,17.80
2018-06-13T10:11:12.296Z,18.10
2018-06-13T10:13:40.930Z,18.20
2018-06-13T10:16:10.024Z,18.20
2018-06-13T10:18:38.695Z,18.20
2018-06-13T10:21:07.562Z,18.50
2018-06-13T10:23:36.262Z,18.60
2018-06-13T10:26:05.025Z,18.80
2018-06-13T10:28:33.725Z,18.60
2018-06-13T10:31:02.377Z,18.60
2018-06-13T10:33:31.102Z,18.80
2018-06-13T10:36:00.075Z,18.70
2018-06-13T10:38:28.787Z,18.80
2018-06-13T10:40:57.482Z,18.90
2018-06-13T10:43:26.112Z,18.90
2018-06-13T10:45:54.780Z,18.80
2018-06-13T10:48:23.601Z,18.80
2018-06-13T10:50:52.325Z,18.90
2018-06-13T10:53:20.955Z,19.20
2018-06-13T10:55:50.521Z,18.90
2018-06-13T10:58:19.174Z,19.20
2018-06-13T11:00:47.876Z,19.00
2018-06-13T11:03:16.567Z,19.00
2018-06-13T11:05:45.229Z,18.90
2018-06-13T11:08:14.141Z,19.30
2018-06-13T11:10:42.870Z,19.50
2018-06-13T11:13:11.684Z,19.40
2018-06-13T11:15:40.764Z,19.30
2018-06-13T11:18:09.555Z,19.30
2018-06-13T11:20:38.233Z,19.10
2018-06-13T11:23:07.041Z,18.80
2018-06-13T11:25:35.840Z,18.80
2018-06-13T11:28:04.743Z,19.00
2018-06-13T11:30:33.364Z,19.30
2018-06-13T11:33:02.089Z,19.20
2018-06-13T11:35:30.728Z,19.20
2018-06-13T11:37:59.617Z,19.10
2018-06-13T11:40:28.352Z,19.10
2018-06-13T11:42:57.115Z,19.30
2018-06-13T11:45:25.807Z,19.10
2018-06-13T11:47:54.543Z,19.00
2018-06-13T11:50:23.244Z,19.30
2018-06-13T11:52:51.877Z,19.30
2018-06-13T11:55:20.566Z,19.30
2018-06-13T11:57:49.212Z,19.30
2018-06-13T12:00:18.016Z,19.30
2018-06-13T12:02:46.772Z,19.00
2018-06-13T12:05:15.484Z,19.30
2018-06-13T12:07:44.125Z,19.40
2018-06-13T12:10:12.837Z,19.50
2018-06-13T12:12:41.503Z,19.40
2018-06-13T12:15:10.161Z,19.40
2018-06-13T12:17:38.813Z,19.20
2018-06-13T12:20:07.481Z,19.10
2018-06-13T12:22:36.185Z,19.00
2018-06-13T12:25:05.022Z,19.10
2018-06-13T12:27:33.801Z,19.20
2018-06-13T12:30:02.745Z,19.00
2018-06-13T12:32:31.397Z,18.80
2018-06-13T12:35:01.081Z,19.00
2018-06-13T12:37:29.942Z,19.10
2018-06-13T12:39:58.821Z,19.10
2018-06-13T12:42:27.575Z,19.00
2018-06-13T12:44:56.482Z,19.20
2018-06-13T12:47:25.161Z,19.20
2018-06-13T12:49:53.964Z,19.30
2018-06-13T12:52:22.808Z,19.20
2018-06-13T12:54:51.569Z,19.20
2018-06-13T12:57:20.357Z,19.20
2018-06-13T12:59:48.996Z,19.20
2018-06-13T13:02:17.947Z,19.20
2018-06-13T13:04:46.691Z,19.30
2018-06-13T13:07:15.403Z,19.10
2018-06-13T13:09:44.224Z,19.10
2018-06-13T13:12:13.072Z,18.90
2018-06-13T13:14:41.983Z,19.00
2018-06-13T13:17:10.955Z,19.10
2018-06-13T13:19:39.788Z,19.20
2018-06-13T13:22:08.639Z,19.10
2018-06-13T13:24:37.893Z,19.40
2018-06-13T13:27:06.613Z,19.20
2018-06-13T13:29:35.337Z,19.20
2018-06-13T13:32:04.085Z,19.20
2018-06-13T13:34:32.788Z,19.10
2018-06-13T13:37:01.833Z,19.10
2018-06-13T13:39:30.593Z,19.20
2018-06-13T13:41:59.297Z,19.40
2018-06-13T13:44:28.070Z,19.20
2018-06-13T13:46:56.919Z,19.10
2018-06-13T13:49:25.670Z,19.30
2018-06-13T13:51:54.548Z,19.30
2018-06-13T13:54:23.196Z,19.10
2018-06-13T13:56:51.876Z,18.70
2018-06-13T13:59:20.568Z,18.80
2018-06-13T14:01:49.407Z,18.90
2018-06-13T14:04:18.200Z,19.20
2018-06-13T14:06:46.868Z,18.90
2018-06-13T14:09:15.536Z,18.80
2018-06-13T14:11:44.191Z,18.80
2018-06-13T14:14:13.071Z,18.90
2018-06-13T14:16:41.705Z,18.80
2018-06-13T14:19:10.328Z,18.90
2018-06-13T14:21:39.200Z,18.90
2018-06-13T14:24:07.817Z,18.90
2018-06-13T14:26:37.116Z,18.90
2018-06-13T14:31:34.172Z,18.70
2018-06-13T14:34:02.969Z,18.70
2018-06-13T14:36:31.993Z,18.50
2018-06-13T14:39:00.704Z,18.40
2018-06-13T14:41:29.325Z,18.50
2018-06-13T14:43:58.073Z,18.50
2018-06-13T14:46:26.785Z,18.80
2018-06-13T14:48:55.654Z,18.60
2018-06-13T14:51:24.478Z,18.50
2018-06-13T14:53:55.536Z,18.50
2018-06-13T14:56:27.523Z,18.50
2018-06-13T14:58:56.928Z,18.70
2018-06-13T15:01:25.757Z,18.90
2018-06-13T15:03:54.590Z,18.60
2018-06-13T15:06:23.937Z,18.70
2018-06-13T15:08:52.695Z,18.50
2018-06-13T15:11:21.375Z,18.30
2018-06-13T15:13:50.091Z,18.30
2018-06-13T15:16:18.736Z,18.50
2018-06-13T15:21:16.220Z,18.40
2018-06-13T15:23:45.036Z,18.50
2018-06-13T15:26:13.768Z,18.40
2018-06-13T15:28:42.409Z,18.40
2018-06-13T15:31:11.213Z,18.20
2018-06-13T15:33:39.832Z,18.00
2018-06-13T15:36:08.584Z,18.20
2018-06-13T15:38:37.439Z,18.00
2018-06-13T15:41:06.232Z,17.90
2018-06-13T15:43:34.933Z,18.10
2018-06-13T15:46:03.747Z,18.20
2018-06-13T15:48:33.504Z,18.30
2018-06-13T15:51:02.429Z,18.20
2018-06-13T15:53:31.096Z,18.20
2018-06-13T15:55:59.937Z,18.10
2018-06-13T15:58:28.720Z,18.00
2018-06-13T16:00:57.398Z,18.20
2018-06-13T16:03:26.056Z,18.30
2018-06-13T16:05:54.872Z,17.90
2018-06-13T16:08:23.568Z,17.90
2018-06-13T16:10:52.320Z,17.90
2018-06-13T16:15:49.245Z,17.90
2018-06-13T16:18:17.916Z,17.90
2018-06-13T16:20:46.657Z,17.70
2018-06-13T16:23:15.439Z,17.80
2018-06-13T16:25:44.111Z,17.70
2018-06-13T16:28:12.840Z,17.60
2018-06-13T16:30:41.617Z,17.60
2018-06-13T16:33:10.531Z,17.90
2018-06-13T16:35:39.326Z,17.90
2018-06-13T16:38:07.997Z,18.00
2018-06-13T16:40:36.676Z,18.10
2018-06-13T16:43:05.473Z,17.80
2018-06-13T16:45:34.287Z,17.80
2018-06-13T16:48:03.075Z,17.90
2018-06-13T16:50:42.895Z,18.10
2018-06-13T16:53:20.184Z,18.00
2018-06-13T16:55:49.104Z,17.80
2018-06-13T16:58:17.775Z,17.80
2018-06-13T17:00:50.666Z,17.90
2018-06-13T17:03:19.568Z,17.80
2018-06-13T17:05:48.240Z,17.70
2018-06-13T17:08:28.715Z,17.60
2018-06-13T17:11:02.312Z,17.60
2018-06-13T17:13:36.028Z,17.60
2018-06-13T17:16:04.901Z,17.50
2018-06-13T17:18:33.983Z,17.70
2018-06-13T17:21:03.072Z,17.70
2018-06-13T17:23:32.207Z,17.50
2018-06-13T17:26:01.372Z,17.50
2018-06-13T17:28:30.569Z,17.60
2018-06-13T17:30:59.749Z,17.70
2018-06-13T17:33:28.924Z,17.80
2018-06-13T17:38:26.646Z,17.60
2018-06-13T17:40:55.642Z,17.80
2018-06-13T17:43:24.442Z,17.60
2018-06-13T17:45:53.280Z,17.50
2018-06-13T17:48:22.418Z,17.40
2018-06-13T17:50:51.476Z,17.40
2018-06-13T17:53:20.714Z,17.50
2018-06-13T17:55:49.641Z,17.40
2018-06-13T18:00:46.902Z,17.50
2018-06-13T18:03:15.764Z,17.40
2018-06-13T18:05:45.104Z,17.40
2018-06-13T18:08:13.941Z,17.30
2018-06-13T18:10:43.060Z,17.30
2018-06-13T18:13:12.134Z,17.30
2018-06-13T18:15:41.196Z,17.20
2018-06-13T18:18:09.936Z,17.10
2018-06-13T18:20:38.800Z,17.20
2018-06-13T18:23:07.519Z,17.30
2018-06-13T18:25:36.194Z,17.60
2018-06-13T18:28:13.107Z,17.60
2018-06-13T18:30:42.064Z,17.60
2018-06-13T18:33:10.904Z,17.70
2018-06-13T18:35:39.849Z,17.60
2018-06-13T18:38:08.868Z,17.40
2018-06-13T18:40:37.737Z,17.50
2018-06-13T18:43:06.434Z,17.40
2018-06-13T18:45:35.861Z,17.40
2018-06-13T18:48:04.894Z,17.40
2018-06-13T18:50:33.717Z,17.20
2018-06-13T18:53:02.566Z,17.30
2018-06-13T18:55:31.591Z,17.50
2018-06-13T18:58:00.886Z,17.30
2018-06-13T19:00:29.822Z,17.10
2018-06-13T19:02:58.880Z,17.20
2018-06-13T19:05:28.061Z,17.10
2018-06-13T19:07:57.307Z,17.10
2018-06-13T19:10:26.526Z,17.00
2018-06-13T19:12:55.471Z,17.10
2018-06-13T19:15:24.835Z,17.30
2018-06-13T19:17:53.873Z,17.20
2018-06-13T19:20:22.860Z,17.10
2018-06-13T19:22:52.140Z,17.20
2018-06-13T19:25:21.056Z,17.20
2018-06-13T19:27:50.227Z,17.20
2018-06-13T19:30:19.021Z,17.00
2018-06-13T19:32:48.391Z,17.00
2018-06-13T19:35:17.484Z,17.10
2018-06-13T19:37:46.576Z,17.00
2018-06-13T19:40:15.817Z,17.10
2018-06-13T19:42:44.861Z,16.90
2018-06-13T19:45:13.822Z,16.90
2018-06-13T19:47:47.916Z,17.20
2018-06-13T19:50:16.758Z,17.10
2018-06-13T19:52:50.998Z,17.10
2018-06-13T19:55:25.228Z,17.10
2018-06-13T19:57:54.166Z,17.20
2018-06-13T20:00:23.385Z,17.10
2018-06-13T20:02:57.524Z,17.30
2018-06-13T20:05:31.612Z,17.00
2018-06-13T20:08:00.596Z,17.10
2018-06-13T20:10:29.459Z,17.20
2018-06-13T20:13:03.824Z,17.20
2018-06-13T20:15:38.031Z,17.20
2018-06-13T20:18:12.140Z,17.20
2018-06-13T20:20:42.177Z,17.10
2018-06-13T20:23:11.035Z,17.10
2018-06-13T20:25:45.011Z,17.00
2018-06-13T20:28:19.184Z,17.10
2018-06-13T20:30:53.358Z,16.90
2018-06-13T20:33:22.336Z,16.90
2018-06-13T20:35:51.069Z,16.90
2018-06-13T20:38:19.708Z,16.90
2018-06-13T20:40:48.546Z,16.90
2018-06-13T20:43:17.294Z,17.00
2018-06-13T20:45:46.044Z,17.10
2018-06-13T20:48:14.737Z,17.00
2018-06-13T20:50:43.522Z,16.80
2018-06-13T20:53:12.281Z,16.70
2018-06-13T20:55:41.042Z,16.80
2018-06-13T20:58:09.785Z,16.80
2018-06-13T21:00:38.588Z,16.80
2018-06-13T21:03:07.307Z,16.90
2018-06-13T21:05:36.177Z,17.00
2018-06-13T21:08:04.978Z,16.80
2018-06-13T21:10:33.781Z,16.90
2018-06-13T21:13:02.595Z,16.90
2018-06-13T21:15:31.350Z,16.90
2018-06-13T21:18:00.160Z,17.00
2018-06-13T21:20:29.021Z,17.00
2018-06-13T21:22:57.851Z,17.10
2018-06-13T21:25:26.754Z,17.10
2018-06-13T21:27:55.423Z,17.10
2018-06-13T21:30:24.291Z,17.10
2018-06-13T21:32:52.948Z,16.90
2018-06-13T21:35:21.762Z,17.00
2018-06-13T21:37:50.489Z,17.00
2018-06-13T21:40:19.276Z,17.10
2018-06-13T21:42:48.212Z,17.00
2018-06-13T21:45:17.012Z,16.90
2018-06-13T21:47:45.624Z,17.00
2018-06-13T21:50:14.321Z,17.00
2018-06-13T21:52:43.211Z,16.90
2018-06-13T21:55:11.932Z,17.00
2018-06-13T21:57:40.861Z,17.00
2018-06-13T22:00:11.225Z,17.00
2018-06-13T22:02:40.334Z,16.90
2018-06-13T22:05:09.177Z,16.90
2018-06-13T22:07:37.887Z,17.00
2018-06-13T22:10:06.667Z,17.00
2018-06-13T22:12:35.745Z,16.90
2018-06-13T22:15:04.577Z,16.90
2018-06-13T22:17:33.526Z,16.90
2018-06-13T22:20:02.418Z,16.80
2018-06-13T22:22:31.207Z,16.90
2018-06-13T22:24:59.961Z,17.00
2018-06-13T22:27:28.887Z,17.00
2018-06-13T22:29:57.637Z,17.10
2018-06-13T22:32:26.504Z,17.10
2018-06-13T22:37:23.842Z,17.00
2018-06-13T22:39:52.761Z,17.00
2018-06-13T22:42:21.630Z,17.00
2018-06-13T22:49:47.474Z,16.90
2018-06-13T22:52:16.132Z,16.90
2018-06-13T22:54:44.981Z,16.90
2018-06-13T22:57:13.852Z,16.90
2018-06-13T22:59:42.840Z,16.80
2018-06-13T23:02:11.727Z,16.80
2018-06-13T23:04:40.475Z,16.70
2018-06-13T23:07:09.278Z,16.80
2018-06-13T23:09:38.023Z,16.80
2018-06-13T23:12:06.778Z,16.90
2018-06-13T23:14:35.816Z,16.90
2018-06-13T23:17:04.701Z,16.90
2018-06-13T23:19:33.408Z,16.80
2018-06-13T23:22:02.160Z,16.70
2018-06-13T23:24:31.107Z,16.80
2018-06-13T23:26:59.932Z,16.90
2018-06-13T23:29:28.871Z,16.80
2018-06-13T23:31:57.805Z,16.80
2018-06-13T23:34:26.569Z,16.80
2018-06-13T23:36:55.265Z,16.80
2018-06-13T23:39:24.071Z,16.80
2018-06-13T23:41:53.131Z,16.90
2018-06-13T23:44:22.090Z,16.90
2018-06-13T23:46:50.874Z,17.00
2018-06-13T23:49:19.840Z,16.90
2018-06-13T23:51:48.702Z,16.90
2018-06-13T23:54:17.620Z,16.90
2018-06-13T23:56:46.410Z,16.90
2018-06-13T23:59:15.407Z,16.80
